sensor_id;sensor_type;location;lat;lon;timestamp;P1;durP1;ratioP1;P2;durP2;ratioP2
84146;SDS011;74267;50.434;7.398;2024-01-06T00:00:19;6.38;;;4.97;;
84146;SDS011;74267;50.434;7.398;2024-01-06T00:02:47;7.10;;;6.20;;
84146;SDS011;74267;50.434;7.398;2024-01-06T00:05:13;5.47;;;4.97;;
84146;SDS011;74267;50.434;7.398;2024-01-06T00:07:38;5.72;;;5.32;;
84146;SDS011;74267;50.434;7.398;2024-01-06T00:10:04;5.07;;;4.68;;
84146;SDS011;74267;50.434;7.398;2024-01-06T00:12:30;7.65;;;5.75;;
84146;SDS011;74267;50.434;7.398;2024-01-06T00:14:55;6.28;;;5.68;;
84146;SDS011;74267;50.434;7.398;2024-01-06T00:17:20;5.65;;;5.18;;
84146;SDS011;74267;50.434;7.398;2024-01-06T00:19:46;5.70;;;4.38;;
84146;SDS011;74267;50.434;7.398;2024-01-06T00:22:15;15.15;;;11.23;;
84146;SDS011;74267;50.434;7.398;2024-01-06T00:24:41;16.92;;;9.98;;
84146;SDS011;74267;50.434;7.398;2024-01-06T00:27:06;10.07;;;7.28;;
84146;SDS011;74267;50.434;7.398;2024-01-06T00:29:31;7.97;;;7.20;;
84146;SDS011;74267;50.434;7.398;2024-01-06T00:31:57;8.77;;;5.70;;
84146;SDS011;74267;50.434;7.398;2024-01-06T00:34:22;9.48;;;6.03;;
84146;SDS011;74267;50.434;7.398;2024-01-06T00:36:47;8.45;;;5.97;;
84146;SDS011;74267;50.434;7.398;2024-01-06T00:39:13;7.15;;;6.45;;
84146;SDS011;74267;50.434;7.398;2024-01-06T00:41:38;8.95;;;6.80;;
84146;SDS011;74267;50.434;7.398;2024-01-06T00:44:03;9.55;;;5.90;;
84146;SDS011;74267;50.434;7.398;2024-01-06T00:46:29;8.18;;;7.07;;
84146;SDS011;74267;50.434;7.398;2024-01-06T00:48:54;3.55;;;2.28;;
84146;SDS011;74267;50.434;7.398;2024-01-06T00:51:19;7.22;;;6.53;;
84146;SDS011;74267;50.434;7.398;2024-01-06T00:53:45;6.28;;;5.72;;
84146;SDS011;74267;50.434;7.398;2024-01-06T00:56:10;6.75;;;6.35;;
84146;SDS011;74267;50.434;7.398;2024-01-06T00:58:35;6.13;;;5.63;;
84146;SDS011;74267;50.434;7.398;2024-01-06T01:01:00;5.50;;;5.10;;
84146;SDS011;74267;50.434;7.398;2024-01-06T01:03:26;7.63;;;5.80;;
84146;SDS011;74267;50.434;7.398;2024-01-06T01:05:51;5.95;;;5.45;;
84146;SDS011;74267;50.434;7.398;2024-01-06T01:08:16;5.68;;;5.10;;
84146;SDS011;74267;50.434;7.398;2024-01-06T01:10:42;6.45;;;5.95;;
84146;SDS011;74267;50.434;7.398;2024-01-06T01:13:07;6.10;;;5.38;;
84146;SDS011;74267;50.434;7.398;2024-01-06T01:15:32;5.28;;;4.88;;
84146;SDS011;74267;50.434;7.398;2024-01-06T01:17:57;5.30;;;4.53;;
84146;SDS011;74267;50.434;7.398;2024-01-06T01:20:23;5.28;;;4.88;;
84146;SDS011;74267;50.434;7.398;2024-01-06T01:22:48;5.35;;;4.88;;
84146;SDS011;74267;50.434;7.398;2024-01-06T01:25:14;5.55;;;2.33;;
84146;SDS011;74267;50.434;7.398;2024-01-06T01:27:39;7.82;;;5.85;;
84146;SDS011;74267;50.434;7.398;2024-01-06T01:30:04;6.20;;;5.07;;
84146;SDS011;74267;50.434;7.398;2024-01-06T01:32:30;6.10;;;5.60;;
84146;SDS011;74267;50.434;7.398;2024-01-06T01:34:55;5.35;;;4.95;;
84146;SDS011;74267;50.434;7.398;2024-01-06T01:37:21;6.05;;;5.35;;
84146;SDS011;74267;50.434;7.398;2024-01-06T01:39:47;3.83;;;2.72;;
84146;SDS011;74267;50.434;7.398;2024-01-06T01:42:12;6.68;;;6.07;;
84146;SDS011;74267;50.434;7.398;2024-01-06T01:44:37;5.63;;;5.18;;
84146;SDS011;74267;50.434;7.398;2024-01-06T01:47:04;6.07;;;5.20;;
84146;SDS011;74267;50.434;7.398;2024-01-06T01:49:30;5.80;;;5.20;;
84146;SDS011;74267;50.434;7.398;2024-01-06T01:51:55;5.45;;;4.70;;
84146;SDS011;74267;50.434;7.398;2024-01-06T01:54:20;5.55;;;5.00;;
84146;SDS011;74267;50.434;7.398;2024-01-06T01:56:46;6.13;;;5.60;;
84146;SDS011;74267;50.434;7.398;2024-01-06T01:59:12;5.82;;;4.93;;
84146;SDS011;74267;50.434;7.398;2024-01-06T02:01:39;4.78;;;4.47;;
84146;SDS011;74267;50.434;7.398;2024-01-06T02:04:05;7.50;;;6.20;;
84146;SDS011;74267;50.434;7.398;2024-01-06T02:06:30;6.30;;;5.47;;
84146;SDS011;74267;50.434;7.398;2024-01-06T02:08:55;6.75;;;6.18;;
84146;SDS011;74267;50.434;7.398;2024-01-06T02:11:21;7.65;;;5.72;;
84146;SDS011;74267;50.434;7.398;2024-01-06T02:13:46;5.80;;;5.18;;
84146;SDS011;74267;50.434;7.398;2024-01-06T02:16:11;4.38;;;3.97;;
84146;SDS011;74267;50.434;7.398;2024-01-06T02:18:37;6.18;;;5.57;;
84146;SDS011;74267;50.434;7.398;2024-01-06T02:21:02;5.57;;;5.05;;
84146;SDS011;74267;50.434;7.398;2024-01-06T02:23:28;5.28;;;4.78;;
84146;SDS011;74267;50.434;7.398;2024-01-06T02:25:54;8.48;;;7.88;;
84146;SDS011;74267;50.434;7.398;2024-01-06T02:28:19;6.28;;;5.68;;
84146;SDS011;74267;50.434;7.398;2024-01-06T02:30:45;5.25;;;4.88;;
84146;SDS011;74267;50.434;7.398;2024-01-06T02:33:10;7.45;;;6.75;;
84146;SDS011;74267;50.434;7.398;2024-01-06T02:35:35;5.20;;;4.80;;
84146;SDS011;74267;50.434;7.398;2024-01-06T02:38:01;6.13;;;5.57;;
84146;SDS011;74267;50.434;7.398;2024-01-06T02:40:27;5.78;;;5.20;;
84146;SDS011;74267;50.434;7.398;2024-01-06T02:42:52;6.00;;;5.50;;
84146;SDS011;74267;50.434;7.398;2024-01-06T02:45:17;7.22;;;5.30;;
84146;SDS011;74267;50.434;7.398;2024-01-06T02:47:43;6.47;;;5.97;;
84146;SDS011;74267;50.434;7.398;2024-01-06T02:50:08;4.90;;;4.47;;
84146;SDS011;74267;50.434;7.398;2024-01-06T02:52:33;6.40;;;5.80;;
84146;SDS011;74267;50.434;7.398;2024-01-06T02:54:59;5.43;;;4.95;;
84146;SDS011;74267;50.434;7.398;2024-01-06T02:57:25;5.63;;;5.13;;
84146;SDS011;74267;50.434;7.398;2024-01-06T02:59:51;5.88;;;4.60;;
84146;SDS011;74267;50.434;7.398;2024-01-06T03:02:16;5.88;;;5.30;;
84146;SDS011;74267;50.434;7.398;2024-01-06T03:04:42;5.95;;;5.40;;
84146;SDS011;74267;50.434;7.398;2024-01-06T03:07:07;5.80;;;5.22;;
84146;SDS011;74267;50.434;7.398;2024-01-06T03:09:32;6.68;;;6.03;;
84146;SDS011;74267;50.434;7.398;2024-01-06T03:11:58;4.85;;;4.45;;
84146;SDS011;74267;50.434;7.398;2024-01-06T03:14:23;6.15;;;5.57;;
84146;SDS011;74267;50.434;7.398;2024-01-06T03:16:48;8.23;;;7.57;;
84146;SDS011;74267;50.434;7.398;2024-01-06T03:19:13;4.63;;;2.83;;
84146;SDS011;74267;50.434;7.398;2024-01-06T03:21:39;6.13;;;5.63;;
84146;SDS011;74267;50.434;7.398;2024-01-06T03:24:04;6.10;;;4.78;;
84146;SDS011;74267;50.434;7.398;2024-01-06T03:26:32;6.78;;;6.18;;
84146;SDS011;74267;50.434;7.398;2024-01-06T03:28:58;5.72;;;4.65;;
84146;SDS011;74267;50.434;7.398;2024-01-06T03:31:24;6.47;;;5.82;;
84146;SDS011;74267;50.434;7.398;2024-01-06T03:33:49;5.53;;;5.13;;
84146;SDS011;74267;50.434;7.398;2024-01-06T03:36:14;6.22;;;5.65;;
84146;SDS011;74267;50.434;7.398;2024-01-06T03:38:41;6.10;;;5.50;;
84146;SDS011;74267;50.434;7.398;2024-01-06T03:41:07;6.53;;;6.03;;
84146;SDS011;74267;50.434;7.398;2024-01-06T03:43:32;6.07;;;4.65;;
84146;SDS011;74267;50.434;7.398;2024-01-06T03:45:57;7.68;;;7.15;;
84146;SDS011;74267;50.434;7.398;2024-01-06T03:48:25;6.63;;;6.03;;
84146;SDS011;74267;50.434;7.398;2024-01-06T03:50:50;6.05;;;5.07;;
84146;SDS011;74267;50.434;7.398;2024-01-06T03:53:15;6.75;;;6.15;;
84146;SDS011;74267;50.434;7.398;2024-01-06T03:55:41;5.88;;;5.22;;
84146;SDS011;74267;50.434;7.398;2024-01-06T03:58:06;6.00;;;5.55;;
84146;SDS011;74267;50.434;7.398;2024-01-06T04:00:31;6.32;;;5.72;;
84146;SDS011;74267;50.434;7.398;2024-01-06T04:02:56;5.38;;;4.88;;
84146;SDS011;74267;50.434;7.398;2024-01-06T04:05:22;7.72;;;7.22;;
84146;SDS011;74267;50.434;7.398;2024-01-06T04:07:47;5.30;;;4.88;;
84146;SDS011;74267;50.434;7.398;2024-01-06T04:10:13;3.90;;;2.88;;
84146;SDS011;74267;50.434;7.398;2024-01-06T04:12:38;6.18;;;5.65;;
84146;SDS011;74267;50.434;7.398;2024-01-06T04:15:03;5.15;;;4.75;;
84146;SDS011;74267;50.434;7.398;2024-01-06T04:17:29;5.90;;;5.40;;
84146;SDS011;74267;50.434;7.398;2024-01-06T04:19:54;5.80;;;5.30;;
84146;SDS011;74267;50.434;7.398;2024-01-06T04:22:20;6.57;;;6.07;;
84146;SDS011;74267;50.434;7.398;2024-01-06T04:24:45;5.13;;;4.72;;
84146;SDS011;74267;50.434;7.398;2024-01-06T04:27:10;5.22;;;4.82;;
84146;SDS011;74267;50.434;7.398;2024-01-06T04:29:36;5.57;;;5.07;;
84146;SDS011;74267;50.434;7.398;2024-01-06T04:32:01;5.57;;;5.10;;
84146;SDS011;74267;50.434;7.398;2024-01-06T04:34:27;5.63;;;5.22;;
84146;SDS011;74267;50.434;7.398;2024-01-06T04:36:52;6.18;;;5.57;;
84146;SDS011;74267;50.434;7.398;2024-01-06T04:39:17;5.55;;;5.03;;
84146;SDS011;74267;50.434;7.398;2024-01-06T04:41:43;7.45;;;6.85;;
84146;SDS011;74267;50.434;7.398;2024-01-06T04:44:08;5.07;;;4.57;;
84146;SDS011;74267;50.434;7.398;2024-01-06T04:46:33;4.65;;;4.25;;
84146;SDS011;74267;50.434;7.398;2024-01-06T04:48:59;5.68;;;5.22;;
84146;SDS011;74267;50.434;7.398;2024-01-06T04:51:24;6.63;;;6.20;;
84146;SDS011;74267;50.434;7.398;2024-01-06T04:53:49;6.82;;;6.30;;
84146;SDS011;74267;50.434;7.398;2024-01-06T04:56:15;7.03;;;6.53;;
84146;SDS011;74267;50.434;7.398;2024-01-06T04:58:40;6.07;;;5.57;;
84146;SDS011;74267;50.434;7.398;2024-01-06T05:01:05;7.32;;;6.82;;
84146;SDS011;74267;50.434;7.398;2024-01-06T05:03:31;5.60;;;5.20;;
84146;SDS011;74267;50.434;7.398;2024-01-06T05:05:56;6.18;;;5.72;;
84146;SDS011;74267;50.434;7.398;2024-01-06T05:08:21;5.55;;;5.15;;
84146;SDS011;74267;50.434;7.398;2024-01-06T05:10:48;6.50;;;6.07;;
84146;SDS011;74267;50.434;7.398;2024-01-06T05:13:14;6.25;;;5.75;;
84146;SDS011;74267;50.434;7.398;2024-01-06T05:15:39;5.47;;;5.07;;
84146;SDS011;74267;50.434;7.398;2024-01-06T05:18:04;5.25;;;4.75;;
84146;SDS011;74267;50.434;7.398;2024-01-06T05:20:30;5.35;;;4.90;;
84146;SDS011;74267;50.434;7.398;2024-01-06T05:22:55;6.28;;;5.88;;
84146;SDS011;74267;50.434;7.398;2024-01-06T05:25:20;5.90;;;5.40;;
84146;SDS011;74267;50.434;7.398;2024-01-06T05:27:46;5.50;;;5.10;;
84146;SDS011;74267;50.434;7.398;2024-01-06T05:30:11;5.53;;;5.13;;
84146;SDS011;74267;50.434;7.398;2024-01-06T05:32:37;5.22;;;4.82;;
84146;SDS011;74267;50.434;7.398;2024-01-06T05:35:03;7.00;;;6.40;;
84146;SDS011;74267;50.434;7.398;2024-01-06T05:37:29;7.10;;;5.72;;
84146;SDS011;74267;50.434;7.398;2024-01-06T05:39:54;6.13;;;5.63;;
84146;SDS011;74267;50.434;7.398;2024-01-06T05:42:20;6.07;;;5.57;;
84146;SDS011;74267;50.434;7.398;2024-01-06T05:44:45;6.03;;;5.63;;
84146;SDS011;74267;50.434;7.398;2024-01-06T05:47:11;5.38;;;4.97;;
84146;SDS011;74267;50.434;7.398;2024-01-06T05:49:36;5.70;;;5.25;;
84146;SDS011;74267;50.434;7.398;2024-01-06T05:52:06;5.75;;;5.35;;
84146;SDS011;74267;50.434;7.398;2024-01-06T05:54:31;6.72;;;6.28;;
84146;SDS011;74267;50.434;7.398;2024-01-06T05:56:56;3.88;;;3.00;;
84146;SDS011;74267;50.434;7.398;2024-01-06T05:59:22;5.97;;;5.07;;
84146;SDS011;74267;50.434;7.398;2024-01-06T06:01:47;7.60;;;7.10;;
84146;SDS011;74267;50.434;7.398;2024-01-06T06:04:12;5.28;;;4.88;;
84146;SDS011;74267;50.434;7.398;2024-01-06T06:06:38;5.93;;;5.40;;
84146;SDS011;74267;50.434;7.398;2024-01-06T06:09:03;6.63;;;6.00;;
84146;SDS011;74267;50.434;7.398;2024-01-06T06:11:32;5.93;;;5.43;;
84146;SDS011;74267;50.434;7.398;2024-01-06T06:13:58;4.97;;;4.55;;
84146;SDS011;74267;50.434;7.398;2024-01-06T06:16:23;6.72;;;6.25;;
84146;SDS011;74267;50.434;7.398;2024-01-06T06:18:48;8.48;;;7.78;;
84146;SDS011;74267;50.434;7.398;2024-01-06T06:21:13;5.38;;;4.97;;
84146;SDS011;74267;50.434;7.398;2024-01-06T06:23:39;5.88;;;5.30;;
84146;SDS011;74267;50.434;7.398;2024-01-06T06:26:07;6.43;;;4.10;;
84146;SDS011;74267;50.434;7.398;2024-01-06T06:28:33;6.30;;;5.82;;
84146;SDS011;74267;50.434;7.398;2024-01-06T06:30:59;5.20;;;4.80;;
84146;SDS011;74267;50.434;7.398;2024-01-06T06:33:25;6.47;;;5.68;;
84146;SDS011;74267;50.434;7.398;2024-01-06T06:35:50;6.72;;;6.18;;
84146;SDS011;74267;50.434;7.398;2024-01-06T06:38:16;6.28;;;5.75;;
84146;SDS011;74267;50.434;7.398;2024-01-06T06:40:41;5.95;;;5.53;;
84146;SDS011;74267;50.434;7.398;2024-01-06T06:43:07;5.93;;;5.43;;
84146;SDS011;74267;50.434;7.398;2024-01-06T06:45:33;7.38;;;3.65;;
84146;SDS011;74267;50.434;7.398;2024-01-06T06:47:58;9.02;;;7.95;;
84146;SDS011;74267;50.434;7.398;2024-01-06T06:50:24;7.75;;;7.07;;
84146;SDS011;74267;50.434;7.398;2024-01-06T06:52:49;7.95;;;6.80;;
84146;SDS011;74267;50.434;7.398;2024-01-06T06:55:14;7.07;;;6.47;;
84146;SDS011;74267;50.434;7.398;2024-01-06T06:57:39;3.67;;;3.30;;
84146;SDS011;74267;50.434;7.398;2024-01-06T07:00:05;5.13;;;4.63;;
84146;SDS011;74267;50.434;7.398;2024-01-06T07:02:32;7.53;;;6.88;;
84146;SDS011;74267;50.434;7.398;2024-01-06T07:04:59;6.57;;;6.05;;
84146;SDS011;74267;50.434;7.398;2024-01-06T07:07:24;6.07;;;5.63;;
84146;SDS011;74267;50.434;7.398;2024-01-06T07:09:49;6.32;;;5.90;;
84146;SDS011;74267;50.434;7.398;2024-01-06T07:12:15;6.03;;;4.95;;
84146;SDS011;74267;50.434;7.398;2024-01-06T07:14:40;5.90;;;5.47;;
84146;SDS011;74267;50.434;7.398;2024-01-06T07:17:05;5.47;;;5.18;;
84146;SDS011;74267;50.434;7.398;2024-01-06T07:19:31;6.63;;;6.13;;
84146;SDS011;74267;50.434;7.398;2024-01-06T07:21:58;7.43;;;6.90;;
84146;SDS011;74267;50.434;7.398;2024-01-06T07:24:23;6.88;;;6.38;;
84146;SDS011;74267;50.434;7.398;2024-01-06T07:26:48;7.43;;;6.82;;
84146;SDS011;74267;50.434;7.398;2024-01-06T07:29:14;7.05;;;6.43;;
84146;SDS011;74267;50.434;7.398;2024-01-06T07:31:39;6.93;;;6.43;;
84146;SDS011;74267;50.434;7.398;2024-01-06T07:34:04;7.22;;;6.57;;
84146;SDS011;74267;50.434;7.398;2024-01-06T07:36:31;8.20;;;7.20;;
84146;SDS011;74267;50.434;7.398;2024-01-06T07:38:56;7.47;;;6.88;;
84146;SDS011;74267;50.434;7.398;2024-01-06T07:41:22;6.78;;;6.30;;
84146;SDS011;74267;50.434;7.398;2024-01-06T07:43:47;6.50;;;6.00;;
84146;SDS011;74267;50.434;7.398;2024-01-06T07:46:12;7.20;;;6.68;;
84146;SDS011;74267;50.434;7.398;2024-01-06T07:48:38;6.53;;;6.07;;
84146;SDS011;74267;50.434;7.398;2024-01-06T07:51:03;5.53;;;5.13;;
84146;SDS011;74267;50.434;7.398;2024-01-06T07:53:29;6.70;;;6.20;;
84146;SDS011;74267;50.434;7.398;2024-01-06T07:55:54;6.95;;;6.30;;
84146;SDS011;74267;50.434;7.398;2024-01-06T07:58:19;6.60;;;5.97;;
84146;SDS011;74267;50.434;7.398;2024-01-06T08:00:46;6.18;;;5.68;;
84146;SDS011;74267;50.434;7.398;2024-01-06T08:03:12;6.72;;;6.07;;
84146;SDS011;74267;50.434;7.398;2024-01-06T08:05:37;6.10;;;5.70;;
84146;SDS011;74267;50.434;7.398;2024-01-06T08:08:03;5.78;;;5.38;;
84146;SDS011;74267;50.434;7.398;2024-01-06T08:10:29;7.43;;;6.80;;
84146;SDS011;74267;50.434;7.398;2024-01-06T08:12:54;6.80;;;6.13;;
84146;SDS011;74267;50.434;7.398;2024-01-06T08:15:20;8.43;;;7.63;;
84146;SDS011;74267;50.434;7.398;2024-01-06T08:17:45;10.02;;;7.70;;
84146;SDS011;74267;50.434;7.398;2024-01-06T08:20:11;8.88;;;7.97;;
84146;SDS011;74267;50.434;7.398;2024-01-06T08:22:37;10.57;;;8.43;;
84146;SDS011;74267;50.434;7.398;2024-01-06T08:25:03;8.85;;;7.95;;
84146;SDS011;74267;50.434;7.398;2024-01-06T08:27:31;11.88;;;8.77;;
84146;SDS011;74267;50.434;7.398;2024-01-06T08:29:56;10.80;;;9.45;;
84146;SDS011;74267;50.434;7.398;2024-01-06T08:32:22;11.32;;;9.00;;
84146;SDS011;74267;50.434;7.398;2024-01-06T08:34:47;12.07;;;8.93;;
84146;SDS011;74267;50.434;7.398;2024-01-06T08:37:12;12.02;;;9.52;;
84146;SDS011;74267;50.434;7.398;2024-01-06T08:39:38;13.48;;;9.60;;
84146;SDS011;74267;50.434;7.398;2024-01-06T08:42:03;11.20;;;9.13;;
84146;SDS011;74267;50.434;7.398;2024-01-06T08:44:29;14.35;;;10.30;;
84146;SDS011;74267;50.434;7.398;2024-01-06T08:46:54;13.98;;;10.52;;
84146;SDS011;74267;50.434;7.398;2024-01-06T08:49:19;18.25;;;13.35;;
84146;SDS011;74267;50.434;7.398;2024-01-06T08:51:45;16.05;;;10.98;;
84146;SDS011;74267;50.434;7.398;2024-01-06T08:54:10;16.17;;;12.10;;
84146;SDS011;74267;50.434;7.398;2024-01-06T08:56:35;17.17;;;12.60;;
84146;SDS011;74267;50.434;7.398;2024-01-06T08:59:01;16.33;;;12.23;;
84146;SDS011;74267;50.434;7.398;2024-01-06T09:01:26;15.35;;;8.60;;
84146;SDS011;74267;50.434;7.398;2024-01-06T09:03:52;17.73;;;12.65;;
84146;SDS011;74267;50.434;7.398;2024-01-06T09:06:17;20.90;;;12.68;;
84146;SDS011;74267;50.434;7.398;2024-01-06T09:08:42;20.42;;;12.85;;
84146;SDS011;74267;50.434;7.398;2024-01-06T09:11:08;17.42;;;9.68;;
84146;SDS011;74267;50.434;7.398;2024-01-06T09:13:33;20.75;;;12.98;;
84146;SDS011;74267;50.434;7.398;2024-01-06T09:15:59;22.10;;;14.52;;
84146;SDS011;74267;50.434;7.398;2024-01-06T09:18:25;22.40;;;14.55;;
84146;SDS011;74267;50.434;7.398;2024-01-06T09:20:51;20.77;;;14.55;;
84146;SDS011;74267;50.434;7.398;2024-01-06T09:23:16;24.40;;;15.30;;
84146;SDS011;74267;50.434;7.398;2024-01-06T09:25:42;21.92;;;14.63;;
84146;SDS011;74267;50.434;7.398;2024-01-06T09:28:07;21.27;;;14.43;;
84146;SDS011;74267;50.434;7.398;2024-01-06T09:30:32;19.58;;;14.90;;
84146;SDS011;74267;50.434;7.398;2024-01-06T09:32:58;22.83;;;15.23;;
84146;SDS011;74267;50.434;7.398;2024-01-06T09:35:23;22.05;;;15.25;;
84146;SDS011;74267;50.434;7.398;2024-01-06T09:37:49;22.00;;;15.00;;
84146;SDS011;74267;50.434;7.398;2024-01-06T09:40:14;21.88;;;15.70;;
84146;SDS011;74267;50.434;7.398;2024-01-06T09:42:47;20.63;;;15.15;;
84146;SDS011;74267;50.434;7.398;2024-01-06T09:45:13;18.95;;;10.38;;
84146;SDS011;74267;50.434;7.398;2024-01-06T09:47:39;21.23;;;13.32;;
84146;SDS011;74267;50.434;7.398;2024-01-06T09:50:06;19.38;;;13.18;;
84146;SDS011;74267;50.434;7.398;2024-01-06T09:52:34;21.40;;;15.05;;
84146;SDS011;74267;50.434;7.398;2024-01-06T09:55:05;18.27;;;13.15;;
84146;SDS011;74267;50.434;7.398;2024-01-06T09:57:35;17.33;;;12.65;;
84146;SDS011;74267;50.434;7.398;2024-01-06T10:00:01;17.42;;;12.63;;
84146;SDS011;74267;50.434;7.398;2024-01-06T10:02:29;19.30;;;13.85;;
84146;SDS011;74267;50.434;7.398;2024-01-06T10:04:56;22.15;;;17.02;;
84146;SDS011;74267;50.434;7.398;2024-01-06T10:07:23;19.67;;;12.52;;
84146;SDS011;74267;50.434;7.398;2024-01-06T10:09:48;20.33;;;12.80;;
84146;SDS011;74267;50.434;7.398;2024-01-06T10:12:14;18.98;;;12.95;;
84146;SDS011;74267;50.434;7.398;2024-01-06T10:14:39;19.70;;;12.20;;
84146;SDS011;74267;50.434;7.398;2024-01-06T10:17:07;19.60;;;12.52;;
84146;SDS011;74267;50.434;7.398;2024-01-06T10:19:34;17.45;;;12.45;;
84146;SDS011;74267;50.434;7.398;2024-01-06T10:22:00;19.05;;;11.75;;
84146;SDS011;74267;50.434;7.398;2024-01-06T10:24:27;17.40;;;11.82;;
84146;SDS011;74267;50.434;7.398;2024-01-06T10:26:53;18.20;;;12.07;;
84146;SDS011;74267;50.434;7.398;2024-01-06T10:29:18;15.38;;;11.55;;
84146;SDS011;74267;50.434;7.398;2024-01-06T10:31:43;17.08;;;11.45;;
84146;SDS011;74267;50.434;7.398;2024-01-06T10:34:09;17.10;;;12.77;;
84146;SDS011;74267;50.434;7.398;2024-01-06T10:36:35;18.25;;;14.25;;
84146;SDS011;74267;50.434;7.398;2024-01-06T10:39:00;17.48;;;11.73;;
84146;SDS011;74267;50.434;7.398;2024-01-06T10:41:28;18.00;;;13.05;;
84146;SDS011;74267;50.434;7.398;2024-01-06T10:43:55;18.48;;;13.45;;
84146;SDS011;74267;50.434;7.398;2024-01-06T10:46:24;15.77;;;11.52;;
84146;SDS011;74267;50.434;7.398;2024-01-06T10:48:50;15.32;;;11.38;;
84146;SDS011;74267;50.434;7.398;2024-01-06T10:51:17;16.95;;;10.57;;
84146;SDS011;74267;50.434;7.398;2024-01-06T10:53:44;18.17;;;10.50;;
84146;SDS011;74267;50.434;7.398;2024-01-06T10:56:09;15.98;;;11.27;;
84146;SDS011;74267;50.434;7.398;2024-01-06T10:58:38;18.10;;;11.27;;
84146;SDS011;74267;50.434;7.398;2024-01-06T11:01:09;19.40;;;12.15;;
84146;SDS011;74267;50.434;7.398;2024-01-06T11:03:38;17.05;;;11.60;;
84146;SDS011;74267;50.434;7.398;2024-01-06T11:06:07;15.32;;;10.73;;
84146;SDS011;74267;50.434;7.398;2024-01-06T11:08:36;18.10;;;11.15;;
84146;SDS011;74267;50.434;7.398;2024-01-06T11:11:14;14.15;;;10.40;;
84146;SDS011;74267;50.434;7.398;2024-01-06T11:13:49;14.15;;;9.63;;
84146;SDS011;74267;50.434;7.398;2024-01-06T11:16:33;16.13;;;12.25;;
84146;SDS011;74267;50.434;7.398;2024-01-06T11:18:59;12.48;;;9.50;;
84146;SDS011;74267;50.434;7.398;2024-01-06T11:21:25;11.90;;;10.60;;
84146;SDS011;74267;50.434;7.398;2024-01-06T11:26:31;10.95;;;9.80;;
84146;SDS011;74267;50.434;7.398;2024-01-06T11:28:56;11.90;;;9.45;;
84146;SDS011;74267;50.434;7.398;2024-01-06T11:31:23;10.68;;;9.57;;
84146;SDS011;74267;50.434;7.398;2024-01-06T11:33:49;9.20;;;7.63;;
84146;SDS011;74267;50.434;7.398;2024-01-06T11:36:16;9.18;;;8.25;;
84146;SDS011;74267;50.434;7.398;2024-01-06T11:38:41;8.90;;;7.10;;
84146;SDS011;74267;50.434;7.398;2024-01-06T11:41:07;8.60;;;5.85;;
84146;SDS011;74267;50.434;7.398;2024-01-06T11:43:34;10.07;;;8.57;;
84146;SDS011;74267;50.434;7.398;2024-01-06T11:46:00;10.00;;;9.00;;
84146;SDS011;74267;50.434;7.398;2024-01-06T11:48:28;8.63;;;7.72;;
84146;SDS011;74267;50.434;7.398;2024-01-06T11:50:54;10.15;;;8.70;;
84146;SDS011;74267;50.434;7.398;2024-01-06T11:53:20;9.52;;;8.40;;
84146;SDS011;74267;50.434;7.398;2024-01-06T11:55:48;9.20;;;7.82;;
84146;SDS011;74267;50.434;7.398;2024-01-06T11:58:16;8.38;;;7.57;;
84146;SDS011;74267;50.434;7.398;2024-01-06T12:00:41;8.95;;;7.45;;
84146;SDS011;74267;50.434;7.398;2024-01-06T12:03:07;8.23;;;6.30;;
84146;SDS011;74267;50.434;7.398;2024-01-06T12:05:33;9.85;;;7.30;;
84146;SDS011;74267;50.434;7.398;2024-01-06T12:07:59;8.57;;;6.85;;
84146;SDS011;74267;50.434;7.398;2024-01-06T12:10:26;8.80;;;7.45;;
84146;SDS011;74267;50.434;7.398;2024-01-06T12:12:59;8.85;;;7.50;;
84146;SDS011;74267;50.434;7.398;2024-01-06T12:15:26;8.93;;;7.63;;
84146;SDS011;74267;50.434;7.398;2024-01-06T12:17:53;8.52;;;7.57;;
84146;SDS011;74267;50.434;7.398;2024-01-06T12:20:18;10.27;;;7.60;;
84146;SDS011;74267;50.434;7.398;2024-01-06T12:22:44;8.05;;;7.30;;
84146;SDS011;74267;50.434;7.398;2024-01-06T12:25:09;6.95;;;6.25;;
84146;SDS011;74267;50.434;7.398;2024-01-06T12:27:35;7.47;;;6.30;;
84146;SDS011;74267;50.434;7.398;2024-01-06T12:30:00;7.20;;;6.50;;
84146;SDS011;74267;50.434;7.398;2024-01-06T12:32:27;7.13;;;6.43;;
84146;SDS011;74267;50.434;7.398;2024-01-06T12:34:52;6.60;;;6.00;;
84146;SDS011;74267;50.434;7.398;2024-01-06T12:37:18;9.50;;;8.65;;
84146;SDS011;74267;50.434;7.398;2024-01-06T12:39:43;8.40;;;7.60;;
84146;SDS011;74267;50.434;7.398;2024-01-06T12:42:10;8.98;;;8.07;;
84146;SDS011;74267;50.434;7.398;2024-01-06T12:44:36;8.02;;;7.20;;
84146;SDS011;74267;50.434;7.398;2024-01-06T12:47:03;8.15;;;7.35;;
84146;SDS011;74267;50.434;7.398;2024-01-06T12:49:29;8.23;;;7.35;;
84146;SDS011;74267;50.434;7.398;2024-01-06T12:51:54;11.07;;;8.20;;
84146;SDS011;74267;50.434;7.398;2024-01-06T12:54:20;8.32;;;6.70;;
84146;SDS011;74267;50.434;7.398;2024-01-06T12:56:45;9.35;;;8.45;;
84146;SDS011;74267;50.434;7.398;2024-01-06T12:59:11;10.48;;;9.57;;
84146;SDS011;74267;50.434;7.398;2024-01-06T13:01:36;8.70;;;7.70;;
84146;SDS011;74267;50.434;7.398;2024-01-06T13:04:02;9.02;;;8.10;;
84146;SDS011;74267;50.434;7.398;2024-01-06T13:06:27;8.80;;;7.90;;
84146;SDS011;74267;50.434;7.398;2024-01-06T13:08:53;9.60;;;8.60;;
84146;SDS011;74267;50.434;7.398;2024-01-06T13:11:18;9.38;;;8.45;;
84146;SDS011;74267;50.434;7.398;2024-01-06T13:13:44;10.38;;;7.90;;
84146;SDS011;74267;50.434;7.398;2024-01-06T13:16:10;9.60;;;8.50;;
84146;SDS011;74267;50.434;7.398;2024-01-06T13:18:35;10.30;;;8.63;;
84146;SDS011;74267;50.434;7.398;2024-01-06T13:21:00;10.70;;;8.18;;
84146;SDS011;74267;50.434;7.398;2024-01-06T13:23:26;12.60;;;9.15;;
84146;SDS011;74267;50.434;7.398;2024-01-06T13:25:52;10.77;;;8.82;;
84146;SDS011;74267;50.434;7.398;2024-01-06T13:28:17;10.38;;;8.10;;
84146;SDS011;74267;50.434;7.398;2024-01-06T13:30:43;12.52;;;11.18;;
84146;SDS011;74267;50.434;7.398;2024-01-06T13:33:08;13.75;;;11.18;;
84146;SDS011;74267;50.434;7.398;2024-01-06T13:35:36;12.50;;;10.55;;
84146;SDS011;74267;50.434;7.398;2024-01-06T13:38:02;14.20;;;9.43;;
84146;SDS011;74267;50.434;7.398;2024-01-06T13:40:29;12.40;;;9.68;;
84146;SDS011;74267;50.434;7.398;2024-01-06T13:42:55;11.52;;;9.68;;
84146;SDS011;74267;50.434;7.398;2024-01-06T13:45:20;13.60;;;9.38;;
84146;SDS011;74267;50.434;7.398;2024-01-06T13:47:46;14.63;;;10.95;;
84146;SDS011;74267;50.434;7.398;2024-01-06T13:50:12;12.32;;;9.90;;
84146;SDS011;74267;50.434;7.398;2024-01-06T13:52:38;13.88;;;9.82;;
84146;SDS011;74267;50.434;7.398;2024-01-06T13:55:04;14.32;;;10.02;;
84146;SDS011;74267;50.434;7.398;2024-01-06T13:57:30;12.40;;;8.40;;
84146;SDS011;74267;50.434;7.398;2024-01-06T13:59:56;12.98;;;9.38;;
84146;SDS011;74267;50.434;7.398;2024-01-06T14:02:22;13.07;;;8.75;;
84146;SDS011;74267;50.434;7.398;2024-01-06T14:04:48;10.80;;;8.77;;
84146;SDS011;74267;50.434;7.398;2024-01-06T14:07:13;10.82;;;9.32;;
84146;SDS011;74267;50.434;7.398;2024-01-06T14:09:39;10.70;;;8.55;;
84146;SDS011;74267;50.434;7.398;2024-01-06T14:12:04;12.93;;;9.07;;
84146;SDS011;74267;50.434;7.398;2024-01-06T14:14:33;11.00;;;8.23;;
84146;SDS011;74267;50.434;7.398;2024-01-06T14:16:58;13.48;;;10.38;;
84146;SDS011;74267;50.434;7.398;2024-01-06T14:19:24;13.32;;;7.30;;
84146;SDS011;74267;50.434;7.398;2024-01-06T14:21:49;15.82;;;9.25;;
84146;SDS011;74267;50.434;7.398;2024-01-06T14:24:15;13.70;;;9.80;;
84146;SDS011;74267;50.434;7.398;2024-01-06T14:26:43;13.63;;;10.38;;
84146;SDS011;74267;50.434;7.398;2024-01-06T14:29:09;15.65;;;11.10;;
84146;SDS011;74267;50.434;7.398;2024-01-06T14:31:34;13.50;;;9.50;;
84146;SDS011;74267;50.434;7.398;2024-01-06T14:34:00;13.15;;;9.35;;